Saturday, December 20, 2014
02:59 UTC
  |  Log In   |  Register Free
Airport Search:

Durant Regional - Eaker Field Airport
(KDUA)

Durant Regional - Eaker Field Airport Diagram
No Airport Diagram Available

FAA data valid effective November 13, 2014 - January 08, 2015 (unless otherwise noted).

 
 
 
 
 
 
 
 
 
 
 
 
 
 

Current Aviation Weather for Durant Regional - Eaker Field Airport (KDUA)

The most recent METAR observation for KDUA was updated at: 2113
METAR Summary (Translated METAR)
KDUA
182055Z AUTO 00000KT 7SM OVC003 06/06 A3012 RMK AO2
KGYI
182055Z AUTO 00000KT 5SM BR OVC005 07/07 A3012 RMK AO2 T00700068
(19.5 nm SW from KDUA)
KAQR
182055Z AUTO 00000KT 7SM OVC005 06/06 A3014 RMK AO2
(30 nm NE from KDUA)
TAF
No TAF information found within 50 nm of KDUA
  Airport Weather Conditions for KDUA

 Current Weather at DUA
43° F
Fog/Mist
Northwest winds at 8.1 mph
DUA NOAA Radar

Pressure: 30.21 in
Humidity: 100%
Wind: Northwest at 8.1 MPH (7 KT)
Dew Point: 42.8°F
Visibility: 4.00 mi


Airport Weather Forecast for KDUA

Translated METAR and TAF for KDUA
Translated METAR for KDUA (0300 UTC 20 December 2014)
found at http://aviationweather.gov/adds/metars/
 
METAR text: KDUA 200255Z AUTO 34006KT 5SM BR OVC005 06/06 A3022 RMK AO2
Conditions at: KDUA (DURANT , OK, US) observed 0255 UTC 20 December 2014
Temperature: 6.0°C (43°F)
Dewpoint: 6.0°C (43°F) [RH = 100%]
Pressure (altimeter): 30.22 inches Hg (1023.5 mb)
Winds: from the NNW (340 degrees) at 7 MPH (6 knots; 3.1 m/s)
Visibility: 5 miles (8 km)
Ceiling: 500 feet AGL
Clouds: overcast cloud deck at 500 feet AGL
Weather: BR  (mist)
Translated TAF for KDUA

There is no translated TAF available for this airport

Find All Airport Services Find A Hotel Find A Rental Car Find A Golf Course Find A Restaurant $100 Hamburger



FBO's on the Field
FBO Company Facility Photos Services Transportation Aviation Fuel Prices: Prices include tax
Catering Weather Repair Courtesy Rental Type 100LL JetA JetA+ MOGAS 8087
 
D/W Aviation

This FBO has not yet been rated
FS:Avfuel
Last Updated: Dec-04
Login to update fuel prices
SS:
Contact D/W AviationMore FBO Information
 
Add another FBO Facility Photos Catering Weather Repair Courtesy Rental Type 100LL JetA JetA+ MOGAS 8087
Services Transportation Aviation Fuel Prices: Prices include tax


model-print
model-print
model-print
model-print